Terminal Aerodrome Forecast
Issued by NWS Portland, OR

Home | Current Version | Previous Version | Text Only | Print | Product List | Glossary On
Versions: 1 2 3 4 5 6 7 8 9 10 11 12 13 14 15 16
000
FTUS46 KPQR 022325
TAFSLE
TAF
KSLE 022325Z 0300/0324 29007KT P6SM SCT060 BKN120
     FM030200 25005KT P6SM -SHRA VCTS BKN060CB BKN120
     FM030900 22004KT P6SM BKN060 BKN120
     FM031400 VRB03KT P6SM SCT025 BKN060
     FM031900 34008KT P6SM SCT040 SCT070=

USA.gov is the U.S. government's official web portal to all federal, state and local government web resources and services.